Gambill, Indiana
Current Conditions -  °F | °C
As of 3:55 PM on Thursday 20 Nov 2014 (Local Time) from KRSV Reporting Station
Clear Clear  
Wind Chill: 25°   Ceiling: Unl
Heat Index: 33°   Visibility: 10mi
Dew Point: 18°   Wind: 9mph
Humidity: 55%   Direction: 280°W
Pressure: 30.22"   Gusts: 16mph
Location:  39.0631°N, 87.2571°W
Report Text: KRSV 202055Z AUTO 28008G14KT 10SM CLR 01/M08 A3022 RMK AO2 T00051077
Loading
Personal Weather Stations






























Interactive Weather Map New forecast layout! Learn more

10-Day Weather Forecast

Advertisements
Track Severe Weather on mobile